sensor_id;sensor_type;location;lat;lon;timestamp;temperature;humidity
13164;DHT22;6647;53.688;10.746;2022-12-18T00:01:04;-4.20;1.00
13164;DHT22;6647;53.688;10.746;2022-12-18T00:02:26;-4.30;1.00
13164;DHT22;6647;53.688;10.746;2022-12-18T00:03:48;-4.30;1.00
13164;DHT22;6647;53.688;10.746;2022-12-18T00:05:09;-4.30;1.00
13164;DHT22;6647;53.688;10.746;2022-12-18T00:06:30;-4.30;1.00
13164;DHT22;6647;53.688;10.746;2022-12-18T00:07:50;-4.30;1.00
13164;DHT22;6647;53.688;10.746;2022-12-18T00:09:11;-4.30;1.00
13164;DHT22;6647;53.688;10.746;2022-12-18T00:10:32;-4.30;1.00
13164;DHT22;6647;53.688;10.746;2022-12-18T00:11:53;-4.30;1.00
13164;DHT22;6647;53.688;10.746;2022-12-18T00:13:14;-4.30;1.00
13164;DHT22;6647;53.688;10.746;2022-12-18T00:14:35;-4.30;1.00
13164;DHT22;6647;53.688;10.746;2022-12-18T00:16:02;-4.30;1.00
13164;DHT22;6647;53.688;10.746;2022-12-18T00:17:23;-4.30;1.00
13164;DHT22;6647;53.688;10.746;2022-12-18T00:18:44;-4.30;1.00
13164;DHT22;6647;53.688;10.746;2022-12-18T00:20:05;-4.40;1.00
13164;DHT22;6647;53.688;10.746;2022-12-18T00:21:27;-4.30;1.00
13164;DHT22;6647;53.688;10.746;2022-12-18T00:22:48;-4.40;1.00
13164;DHT22;6647;53.688;10.746;2022-12-18T00:24:10;-4.40;1.00
13164;DHT22;6647;53.688;10.746;2022-12-18T00:25:35;-4.40;1.00
13164;DHT22;6647;53.688;10.746;2022-12-18T00:26:56;-4.50;1.00
13164;DHT22;6647;53.688;10.746;2022-12-18T00:28:17;-4.50;1.00
13164;DHT22;6647;53.688;10.746;2022-12-18T00:29:38;-4.50;1.00
13164;DHT22;6647;53.688;10.746;2022-12-18T00:31:11;-4.60;1.00
13164;DHT22;6647;53.688;10.746;2022-12-18T00:32:32;-4.60;1.00
13164;DHT22;6647;53.688;10.746;2022-12-18T00:33:54;-4.60;1.00
13164;DHT22;6647;53.688;10.746;2022-12-18T00:35:16;-4.60;1.00
13164;DHT22;6647;53.688;10.746;2022-12-18T00:36:38;-4.50;1.00
13164;DHT22;6647;53.688;10.746;2022-12-18T00:37:59;-4.50;1.00
13164;DHT22;6647;53.688;10.746;2022-12-18T00:39:20;-4.60;1.00
13164;DHT22;6647;53.688;10.746;2022-12-18T00:40:41;-4.60;1.00
13164;DHT22;6647;53.688;10.746;2022-12-18T00:42:02;-4.60;1.00
13164;DHT22;6647;53.688;10.746;2022-12-18T00:43:41;-4.60;1.00
13164;DHT22;6647;53.688;10.746;2022-12-18T00:45:03;-4.60;1.00
13164;DHT22;6647;53.688;10.746;2022-12-18T00:46:24;-4.50;1.00
13164;DHT22;6647;53.688;10.746;2022-12-18T00:47:44;-4.50;1.00
13164;DHT22;6647;53.688;10.746;2022-12-18T00:49:06;-4.60;1.00
13164;DHT22;6647;53.688;10.746;2022-12-18T00:50:27;-4.60;1.00
13164;DHT22;6647;53.688;10.746;2022-12-18T00:51:48;-4.60;1.00
13164;DHT22;6647;53.688;10.746;2022-12-18T00:53:09;-4.60;1.00
13164;DHT22;6647;53.688;10.746;2022-12-18T00:54:30;-4.60;1.00
13164;DHT22;6647;53.688;10.746;2022-12-18T00:55:50;-4.60;1.00
13164;DHT22;6647;53.688;10.746;2022-12-18T00:57:11;-4.60;1.00
13164;DHT22;6647;53.688;10.746;2022-12-18T00:58:32;-4.60;1.00
13164;DHT22;6647;53.688;10.746;2022-12-18T00:59:53;-4.60;1.00
13164;DHT22;6647;53.688;10.746;2022-12-18T01:01:14;-4.60;1.00
13164;DHT22;6647;53.688;10.746;2022-12-18T01:02:35;-4.60;1.00
13164;DHT22;6647;53.688;10.746;2022-12-18T01:03:56;-4.60;1.00
13164;DHT22;6647;53.688;10.746;2022-12-18T01:05:17;-4.60;1.00
13164;DHT22;6647;53.688;10.746;2022-12-18T01:06:38;-4.70;1.00
13164;DHT22;6647;53.688;10.746;2022-12-18T01:07:59;-4.70;1.00
13164;DHT22;6647;53.688;10.746;2022-12-18T01:09:20;-4.60;1.00
13164;DHT22;6647;53.688;10.746;2022-12-18T01:10:41;-4.60;1.00
13164;DHT22;6647;53.688;10.746;2022-12-18T01:12:02;-4.60;1.00
13164;DHT22;6647;53.688;10.746;2022-12-18T01:13:23;-4.60;1.00
13164;DHT22;6647;53.688;10.746;2022-12-18T01:14:44;-4.70;1.00
13164;DHT22;6647;53.688;10.746;2022-12-18T01:16:05;-4.70;1.00
13164;DHT22;6647;53.688;10.746;2022-12-18T01:17:26;-4.70;1.00
13164;DHT22;6647;53.688;10.746;2022-12-18T01:18:50;-4.70;1.00
13164;DHT22;6647;53.688;10.746;2022-12-18T01:20:12;-4.70;1.00
13164;DHT22;6647;53.688;10.746;2022-12-18T01:21:33;-4.70;1.00
13164;DHT22;6647;53.688;10.746;2022-12-18T01:22:54;-4.80;1.00
13164;DHT22;6647;53.688;10.746;2022-12-18T01:24:15;-4.80;1.00
13164;DHT22;6647;53.688;10.746;2022-12-18T01:25:36;-4.80;1.00
13164;DHT22;6647;53.688;10.746;2022-12-18T01:26:57;-4.80;1.00
13164;DHT22;6647;53.688;10.746;2022-12-18T01:28:19;-4.80;1.00
13164;DHT22;6647;53.688;10.746;2022-12-18T01:29:40;-4.80;1.00
13164;DHT22;6647;53.688;10.746;2022-12-18T01:31:17;-4.80;1.00
13164;DHT22;6647;53.688;10.746;2022-12-18T01:32:39;-4.80;1.00
13164;DHT22;6647;53.688;10.746;2022-12-18T01:34:04;-4.90;1.00
13164;DHT22;6647;53.688;10.746;2022-12-18T01:35:25;-4.90;1.00
13164;DHT22;6647;53.688;10.746;2022-12-18T01:36:46;-4.90;1.00
13164;DHT22;6647;53.688;10.746;2022-12-18T01:38:07;-4.90;1.00
13164;DHT22;6647;53.688;10.746;2022-12-18T01:39:28;-4.90;1.00
13164;DHT22;6647;53.688;10.746;2022-12-18T01:40:49;-4.90;1.00
13164;DHT22;6647;53.688;10.746;2022-12-18T01:42:17;-4.90;1.00
13164;DHT22;6647;53.688;10.746;2022-12-18T01:43:44;-4.90;1.00
13164;DHT22;6647;53.688;10.746;2022-12-18T01:46:32;-5.00;1.00
13164;DHT22;6647;53.688;10.746;2022-12-18T01:48:05;-5.00;1.00
13164;DHT22;6647;53.688;10.746;2022-12-18T01:49:27;-5.00;1.00
13164;DHT22;6647;53.688;10.746;2022-12-18T01:50:48;-5.00;1.00
13164;DHT22;6647;53.688;10.746;2022-12-18T01:52:10;-5.00;1.00
13164;DHT22;6647;53.688;10.746;2022-12-18T01:53:31;-5.00;1.00
13164;DHT22;6647;53.688;10.746;2022-12-18T01:54:53;-5.00;1.00
13164;DHT22;6647;53.688;10.746;2022-12-18T01:56:16;-5.00;1.00
13164;DHT22;6647;53.688;10.746;2022-12-18T01:57:39;-5.00;1.00
13164;DHT22;6647;53.688;10.746;2022-12-18T01:59:03;-5.00;1.00
13164;DHT22;6647;53.688;10.746;2022-12-18T02:00:26;-5.00;1.00
13164;DHT22;6647;53.688;10.746;2022-12-18T02:01:47;-5.10;1.00
13164;DHT22;6647;53.688;10.746;2022-12-18T02:03:08;-5.00;1.00
13164;DHT22;6647;53.688;10.746;2022-12-18T02:04:29;-5.00;1.00
13164;DHT22;6647;53.688;10.746;2022-12-18T02:06:02;-5.10;1.00
13164;DHT22;6647;53.688;10.746;2022-12-18T02:09:15;-5.10;1.00
13164;DHT22;6647;53.688;10.746;2022-12-18T02:11:01;-5.00;1.00
13164;DHT22;6647;53.688;10.746;2022-12-18T02:12:34;-5.00;1.00
13164;DHT22;6647;53.688;10.746;2022-12-18T02:14:32;-5.10;1.00
13164;DHT22;6647;53.688;10.746;2022-12-18T02:16:31;-5.00;1.00
13164;DHT22;6647;53.688;10.746;2022-12-18T02:17:57;-5.00;1.00
13164;DHT22;6647;53.688;10.746;2022-12-18T02:21:12;-5.00;1.00
13164;DHT22;6647;53.688;10.746;2022-12-18T02:24:38;-5.10;1.00
13164;DHT22;6647;53.688;10.746;2022-12-18T02:27:39;-5.00;1.00
13164;DHT22;6647;53.688;10.746;2022-12-18T02:29:15;-5.00;1.00
13164;DHT22;6647;53.688;10.746;2022-12-18T02:30:37;-5.00;1.00
13164;DHT22;6647;53.688;10.746;2022-12-18T02:32:00;-5.10;1.00
13164;DHT22;6647;53.688;10.746;2022-12-18T02:33:23;-5.00;1.00
13164;DHT22;6647;53.688;10.746;2022-12-18T02:34:46;-5.00;1.00
13164;DHT22;6647;53.688;10.746;2022-12-18T02:36:09;-5.00;1.00
13164;DHT22;6647;53.688;10.746;2022-12-18T02:37:32;-5.00;1.00
13164;DHT22;6647;53.688;10.746;2022-12-18T02:38:55;-5.10;1.00
13164;DHT22;6647;53.688;10.746;2022-12-18T02:40:17;-5.10;1.00
13164;DHT22;6647;53.688;10.746;2022-12-18T02:41:39;-5.10;1.00
13164;DHT22;6647;53.688;10.746;2022-12-18T02:43:14;-5.10;1.00
13164;DHT22;6647;53.688;10.746;2022-12-18T02:44:46;-5.10;1.00
13164;DHT22;6647;53.688;10.746;2022-12-18T02:46:31;-5.10;1.00
13164;DHT22;6647;53.688;10.746;2022-12-18T02:47:52;-5.10;1.00
13164;DHT22;6647;53.688;10.746;2022-12-18T02:51:24;-5.10;1.00
13164;DHT22;6647;53.688;10.746;2022-12-18T02:56:12;-5.00;1.00
13164;DHT22;6647;53.688;10.746;2022-12-18T02:59:19;-5.00;1.00
13164;DHT22;6647;53.688;10.746;2022-12-18T03:00:51;-5.00;1.00
13164;DHT22;6647;53.688;10.746;2022-12-18T03:02:19;-5.00;1.00
13164;DHT22;6647;53.688;10.746;2022-12-18T03:07:23;-5.00;1.00
13164;DHT22;6647;53.688;10.746;2022-12-18T03:08:49;-5.00;1.00
13164;DHT22;6647;53.688;10.746;2022-12-18T03:10:14;-5.00;1.00
13164;DHT22;6647;53.688;10.746;2022-12-18T03:11:40;-5.00;1.00
13164;DHT22;6647;53.688;10.746;2022-12-18T03:13:30;-5.00;1.00
13164;DHT22;6647;53.688;10.746;2022-12-18T03:15:17;-5.00;1.00
13164;DHT22;6647;53.688;10.746;2022-12-18T03:16:40;-5.10;1.00
13164;DHT22;6647;53.688;10.746;2022-12-18T03:18:10;-5.10;1.00
13164;DHT22;6647;53.688;10.746;2022-12-18T03:19:34;-5.00;1.00
13164;DHT22;6647;53.688;10.746;2022-12-18T03:20:58;-5.10;1.00
13164;DHT22;6647;53.688;10.746;2022-12-18T03:22:20;-5.10;1.00
13164;DHT22;6647;53.688;10.746;2022-12-18T03:23:44;-5.10;1.00
13164;DHT22;6647;53.688;10.746;2022-12-18T03:25:11;-5.10;1.00
13164;DHT22;6647;53.688;10.746;2022-12-18T03:26:35;-5.10;1.00
13164;DHT22;6647;53.688;10.746;2022-12-18T03:27:58;-5.10;1.00
13164;DHT22;6647;53.688;10.746;2022-12-18T03:29:25;-5.10;1.00
13164;DHT22;6647;53.688;10.746;2022-12-18T03:30:51;-5.20;1.00
13164;DHT22;6647;53.688;10.746;2022-12-18T03:32:25;-5.20;1.00
13164;DHT22;6647;53.688;10.746;2022-12-18T03:33:59;-5.30;1.00
13164;DHT22;6647;53.688;10.746;2022-12-18T03:35:25;-5.20;1.00
13164;DHT22;6647;53.688;10.746;2022-12-18T03:36:47;-5.20;1.00
13164;DHT22;6647;53.688;10.746;2022-12-18T03:38:09;-5.30;1.00
13164;DHT22;6647;53.688;10.746;2022-12-18T03:39:30;-5.30;1.00
13164;DHT22;6647;53.688;10.746;2022-12-18T03:42:52;-5.30;1.00
13164;DHT22;6647;53.688;10.746;2022-12-18T03:44:27;-5.40;1.00
13164;DHT22;6647;53.688;10.746;2022-12-18T03:46:04;-5.40;1.00
13164;DHT22;6647;53.688;10.746;2022-12-18T03:47:38;-5.40;1.00
13164;DHT22;6647;53.688;10.746;2022-12-18T03:49:11;-5.40;1.00
13164;DHT22;6647;53.688;10.746;2022-12-18T03:52:21;-5.40;1.00
13164;DHT22;6647;53.688;10.746;2022-12-18T03:53:53;-5.50;1.00
13164;DHT22;6647;53.688;10.746;2022-12-18T03:55:18;-5.50;1.00
13164;DHT22;6647;53.688;10.746;2022-12-18T03:56:47;-5.50;1.00
13164;DHT22;6647;53.688;10.746;2022-12-18T03:58:09;-5.50;1.00
13164;DHT22;6647;53.688;10.746;2022-12-18T03:59:33;-5.50;1.00
13164;DHT22;6647;53.688;10.746;2022-12-18T04:00:56;-5.50;1.00
13164;DHT22;6647;53.688;10.746;2022-12-18T04:02:21;-5.50;1.00
13164;DHT22;6647;53.688;10.746;2022-12-18T04:03:44;-5.50;1.00
13164;DHT22;6647;53.688;10.746;2022-12-18T04:05:07;-5.50;1.00
13164;DHT22;6647;53.688;10.746;2022-12-18T04:06:29;-5.50;1.00
13164;DHT22;6647;53.688;10.746;2022-12-18T04:07:51;-5.50;1.00
13164;DHT22;6647;53.688;10.746;2022-12-18T04:09:14;-5.50;1.00
13164;DHT22;6647;53.688;10.746;2022-12-18T04:10:36;-5.50;1.00
13164;DHT22;6647;53.688;10.746;2022-12-18T04:11:57;-5.50;1.00
13164;DHT22;6647;53.688;10.746;2022-12-18T04:13:24;-5.50;1.00
13164;DHT22;6647;53.688;10.746;2022-12-18T04:14:48;-5.50;1.00
13164;DHT22;6647;53.688;10.746;2022-12-18T04:16:09;-5.40;1.00
13164;DHT22;6647;53.688;10.746;2022-12-18T04:17:30;-5.40;1.00
13164;DHT22;6647;53.688;10.746;2022-12-18T04:18:52;-5.40;1.00
13164;DHT22;6647;53.688;10.746;2022-12-18T04:20:13;-5.50;1.00
13164;DHT22;6647;53.688;10.746;2022-12-18T04:21:34;-5.50;1.00
13164;DHT22;6647;53.688;10.746;2022-12-18T04:22:54;-5.50;1.00
13164;DHT22;6647;53.688;10.746;2022-12-18T04:24:15;-5.50;1.00
13164;DHT22;6647;53.688;10.746;2022-12-18T04:25:36;-5.50;1.00
13164;DHT22;6647;53.688;10.746;2022-12-18T04:26:57;-5.60;1.00
13164;DHT22;6647;53.688;10.746;2022-12-18T04:28:18;-5.60;1.00
13164;DHT22;6647;53.688;10.746;2022-12-18T04:29:39;-5.60;1.00
13164;DHT22;6647;53.688;10.746;2022-12-18T04:31:00;-5.60;1.00
13164;DHT22;6647;53.688;10.746;2022-12-18T04:32:21;-5.70;1.00
13164;DHT22;6647;53.688;10.746;2022-12-18T04:33:41;-5.70;1.00
13164;DHT22;6647;53.688;10.746;2022-12-18T04:35:03;-5.70;1.00
13164;DHT22;6647;53.688;10.746;2022-12-18T04:36:25;-5.70;1.00
13164;DHT22;6647;53.688;10.746;2022-12-18T04:37:46;-5.70;1.00
13164;DHT22;6647;53.688;10.746;2022-12-18T04:39:07;-5.80;1.00
13164;DHT22;6647;53.688;10.746;2022-12-18T04:40:28;-5.70;1.00
13164;DHT22;6647;53.688;10.746;2022-12-18T04:41:49;-5.70;1.00
13164;DHT22;6647;53.688;10.746;2022-12-18T04:43:10;-5.80;1.00
13164;DHT22;6647;53.688;10.746;2022-12-18T04:44:31;-5.70;1.00
13164;DHT22;6647;53.688;10.746;2022-12-18T04:45:51;-5.70;1.00
13164;DHT22;6647;53.688;10.746;2022-12-18T04:47:12;-5.70;1.00
13164;DHT22;6647;53.688;10.746;2022-12-18T04:48:34;-5.70;1.00
13164;DHT22;6647;53.688;10.746;2022-12-18T04:49:55;-5.70;1.00
13164;DHT22;6647;53.688;10.746;2022-12-18T04:51:16;-5.80;1.00
13164;DHT22;6647;53.688;10.746;2022-12-18T04:52:36;-5.80;1.00
13164;DHT22;6647;53.688;10.746;2022-12-18T04:53:57;-5.80;1.00
13164;DHT22;6647;53.688;10.746;2022-12-18T04:55:18;-5.80;1.00
13164;DHT22;6647;53.688;10.746;2022-12-18T04:56:39;-5.80;1.00
13164;DHT22;6647;53.688;10.746;2022-12-18T04:58:00;-5.80;1.00
13164;DHT22;6647;53.688;10.746;2022-12-18T04:59:21;-5.80;1.00
13164;DHT22;6647;53.688;10.746;2022-12-18T05:00:42;-5.80;1.00
13164;DHT22;6647;53.688;10.746;2022-12-18T05:02:03;-5.80;1.00
13164;DHT22;6647;53.688;10.746;2022-12-18T05:03:24;-5.80;1.00
13164;DHT22;6647;53.688;10.746;2022-12-18T05:04:45;-5.80;1.00
13164;DHT22;6647;53.688;10.746;2022-12-18T05:06:07;-5.80;1.00
13164;DHT22;6647;53.688;10.746;2022-12-18T05:07:28;-5.80;1.00
13164;DHT22;6647;53.688;10.746;2022-12-18T05:08:49;-5.80;1.00
13164;DHT22;6647;53.688;10.746;2022-12-18T05:10:10;-5.80;1.00
13164;DHT22;6647;53.688;10.746;2022-12-18T05:11:31;-5.90;1.00
13164;DHT22;6647;53.688;10.746;2022-12-18T05:12:51;-5.90;1.00
13164;DHT22;6647;53.688;10.746;2022-12-18T05:14:18;-5.90;1.00
13164;DHT22;6647;53.688;10.746;2022-12-18T05:15:39;-5.90;1.00
13164;DHT22;6647;53.688;10.746;2022-12-18T05:17:02;-6.00;1.00
13164;DHT22;6647;53.688;10.746;2022-12-18T05:18:23;-6.00;1.00
13164;DHT22;6647;53.688;10.746;2022-12-18T05:19:44;-6.00;1.00
13164;DHT22;6647;53.688;10.746;2022-12-18T05:21:05;-6.00;1.00
13164;DHT22;6647;53.688;10.746;2022-12-18T05:22:26;-6.00;1.00
13164;DHT22;6647;53.688;10.746;2022-12-18T05:23:47;-6.00;1.00
13164;DHT22;6647;53.688;10.746;2022-12-18T05:25:08;-6.00;1.00
13164;DHT22;6647;53.688;10.746;2022-12-18T05:26:29;-6.00;1.00
13164;DHT22;6647;53.688;10.746;2022-12-18T05:27:50;-6.00;1.00
13164;DHT22;6647;53.688;10.746;2022-12-18T05:29:11;-6.00;1.00
13164;DHT22;6647;53.688;10.746;2022-12-18T05:30:33;-6.00;1.00
13164;DHT22;6647;53.688;10.746;2022-12-18T05:31:53;-6.00;1.00
13164;DHT22;6647;53.688;10.746;2022-12-18T05:33:14;-6.00;1.00
13164;DHT22;6647;53.688;10.746;2022-12-18T05:34:35;-6.00;1.00
13164;DHT22;6647;53.688;10.746;2022-12-18T05:35:58;-5.90;1.00
13164;DHT22;6647;53.688;10.746;2022-12-18T05:37:19;-5.90;1.00
13164;DHT22;6647;53.688;10.746;2022-12-18T05:38:41;-5.90;1.00
13164;DHT22;6647;53.688;10.746;2022-12-18T05:40:03;-5.90;1.00
13164;DHT22;6647;53.688;10.746;2022-12-18T05:41:24;-5.90;1.00
13164;DHT22;6647;53.688;10.746;2022-12-18T05:42:45;-5.90;1.00
13164;DHT22;6647;53.688;10.746;2022-12-18T05:44:06;-5.90;1.00
13164;DHT22;6647;53.688;10.746;2022-12-18T05:45:27;-5.90;1.00
13164;DHT22;6647;53.688;10.746;2022-12-18T05:46:48;-5.90;1.00
13164;DHT22;6647;53.688;10.746;2022-12-18T05:48:09;-6.00;1.00
13164;DHT22;6647;53.688;10.746;2022-12-18T05:49:30;-6.00;1.00
13164;DHT22;6647;53.688;10.746;2022-12-18T05:50:51;-6.00;1.00
13164;DHT22;6647;53.688;10.746;2022-12-18T05:52:12;-6.00;1.00
13164;DHT22;6647;53.688;10.746;2022-12-18T05:53:33;-6.00;1.00
13164;DHT22;6647;53.688;10.746;2022-12-18T05:54:54;-6.00;1.00
13164;DHT22;6647;53.688;10.746;2022-12-18T05:56:19;-6.00;1.00
13164;DHT22;6647;53.688;10.746;2022-12-18T05:57:40;-6.00;1.00
13164;DHT22;6647;53.688;10.746;2022-12-18T05:59:01;-6.00;1.00
13164;DHT22;6647;53.688;10.746;2022-12-18T06:00:22;-6.00;1.00
13164;DHT22;6647;53.688;10.746;2022-12-18T06:01:42;-6.00;1.00
13164;DHT22;6647;53.688;10.746;2022-12-18T06:03:03;-6.00;1.00
13164;DHT22;6647;53.688;10.746;2022-12-18T06:04:27;-6.00;1.00
13164;DHT22;6647;53.688;10.746;2022-12-18T06:05:51;-6.00;1.00
13164;DHT22;6647;53.688;10.746;2022-12-18T06:07:12;-6.00;1.00
13164;DHT22;6647;53.688;10.746;2022-12-18T06:08:33;-6.00;1.00
13164;DHT22;6647;53.688;10.746;2022-12-18T06:09:54;-6.00;1.00
13164;DHT22;6647;53.688;10.746;2022-12-18T06:11:20;-6.00;1.00
13164;DHT22;6647;53.688;10.746;2022-12-18T06:12:41;-6.00;1.00
13164;DHT22;6647;53.688;10.746;2022-12-18T06:14:04;-6.10;1.00
13164;DHT22;6647;53.688;10.746;2022-12-18T06:15:25;-6.10;1.00
13164;DHT22;6647;53.688;10.746;2022-12-18T06:16:46;-6.10;1.00
13164;DHT22;6647;53.688;10.746;2022-12-18T06:18:07;-6.10;1.00
13164;DHT22;6647;53.688;10.746;2022-12-18T06:19:27;-6.10;1.00
13164;DHT22;6647;53.688;10.746;2022-12-18T06:20:58;-6.10;1.00
13164;DHT22;6647;53.688;10.746;2022-12-18T06:22:19;-6.10;1.00
13164;DHT22;6647;53.688;10.746;2022-12-18T06:23:40;-6.10;1.00
13164;DHT22;6647;53.688;10.746;2022-12-18T06:25:03;-6.10;1.00
13164;DHT22;6647;53.688;10.746;2022-12-18T06:26:24;-6.10;1.00
13164;DHT22;6647;53.688;10.746;2022-12-18T06:27:47;-6.10;1.00
13164;DHT22;6647;53.688;10.746;2022-12-18T06:29:08;-6.10;1.00
13164;DHT22;6647;53.688;10.746;2022-12-18T06:30:28;-6.10;1.00
13164;DHT22;6647;53.688;10.746;2022-12-18T06:31:49;-6.10;1.00
13164;DHT22;6647;53.688;10.746;2022-12-18T06:33:10;-6.20;1.00
13164;DHT22;6647;53.688;10.746;2022-12-18T06:34:31;-6.20;1.00
13164;DHT22;6647;53.688;10.746;2022-12-18T06:35:53;-6.20;1.00
13164;DHT22;6647;53.688;10.746;2022-12-18T06:37:13;-6.20;1.00
13164;DHT22;6647;53.688;10.746;2022-12-18T06:38:37;-6.20;1.00
13164;DHT22;6647;53.688;10.746;2022-12-18T06:39:58;-6.20;1.00
13164;DHT22;6647;53.688;10.746;2022-12-18T06:41:20;-6.20;1.00
13164;DHT22;6647;53.688;10.746;2022-12-18T06:42:41;-6.30;1.00
13164;DHT22;6647;53.688;10.746;2022-12-18T06:44:02;-6.20;1.00
13164;DHT22;6647;53.688;10.746;2022-12-18T06:45:23;-6.20;1.00
13164;DHT22;6647;53.688;10.746;2022-12-18T06:46:44;-6.20;1.00
13164;DHT22;6647;53.688;10.746;2022-12-18T06:48:05;-6.20;1.00
13164;DHT22;6647;53.688;10.746;2022-12-18T06:49:26;-6.20;1.00
13164;DHT22;6647;53.688;10.746;2022-12-18T06:50:47;-6.20;1.00
13164;DHT22;6647;53.688;10.746;2022-12-18T06:52:08;-6.10;1.00
13164;DHT22;6647;53.688;10.746;2022-12-18T06:53:29;-6.10;1.00
13164;DHT22;6647;53.688;10.746;2022-12-18T06:54:50;-6.10;1.00
13164;DHT22;6647;53.688;10.746;2022-12-18T06:56:11;-6.10;1.00
13164;DHT22;6647;53.688;10.746;2022-12-18T06:57:32;-6.10;1.00
13164;DHT22;6647;53.688;10.746;2022-12-18T06:58:53;-6.10;1.00
13164;DHT22;6647;53.688;10.746;2022-12-18T07:00:14;-6.10;1.00
13164;DHT22;6647;53.688;10.746;2022-12-18T07:01:35;-6.20;1.00
13164;DHT22;6647;53.688;10.746;2022-12-18T07:02:56;-6.20;1.00
13164;DHT22;6647;53.688;10.746;2022-12-18T07:04:17;-6.20;1.00
13164;DHT22;6647;53.688;10.746;2022-12-18T07:05:41;-6.20;1.00
13164;DHT22;6647;53.688;10.746;2022-12-18T07:07:02;-6.20;1.00
13164;DHT22;6647;53.688;10.746;2022-12-18T07:08:23;-6.20;1.00
13164;DHT22;6647;53.688;10.746;2022-12-18T07:09:44;-6.20;1.00
13164;DHT22;6647;53.688;10.746;2022-12-18T07:11:04;-6.20;1.00
13164;DHT22;6647;53.688;10.746;2022-12-18T07:12:27;-6.30;1.00
13164;DHT22;6647;53.688;10.746;2022-12-18T07:13:47;-6.30;1.00
13164;DHT22;6647;53.688;10.746;2022-12-18T07:15:09;-6.30;1.00
13164;DHT22;6647;53.688;10.746;2022-12-18T07:16:30;-6.40;1.00
13164;DHT22;6647;53.688;10.746;2022-12-18T07:17:51;-6.40;1.00
13164;DHT22;6647;53.688;10.746;2022-12-18T07:19:11;-6.40;1.00
13164;DHT22;6647;53.688;10.746;2022-12-18T07:20:32;-6.40;1.00
13164;DHT22;6647;53.688;10.746;2022-12-18T07:21:53;-6.40;1.00
13164;DHT22;6647;53.688;10.746;2022-12-18T07:23:14;-6.40;1.00
13164;DHT22;6647;53.688;10.746;2022-12-18T07:24:35;-6.40;1.00
13164;DHT22;6647;53.688;10.746;2022-12-18T07:26:01;-6.50;1.00
13164;DHT22;6647;53.688;10.746;2022-12-18T07:27:22;-6.50;1.00
13164;DHT22;6647;53.688;10.746;2022-12-18T07:28:43;-6.50;1.00
13164;DHT22;6647;53.688;10.746;2022-12-18T07:30:05;-6.50;1.00
13164;DHT22;6647;53.688;10.746;2022-12-18T07:31:26;-6.60;1.00
13164;DHT22;6647;53.688;10.746;2022-12-18T07:32:47;-6.60;1.00
13164;DHT22;6647;53.688;10.746;2022-12-18T07:34:12;-6.60;1.00
13164;DHT22;6647;53.688;10.746;2022-12-18T07:35:33;-6.60;1.00
13164;DHT22;6647;53.688;10.746;2022-12-18T07:36:54;-6.60;1.00
13164;DHT22;6647;53.688;10.746;2022-12-18T07:38:15;-6.60;1.00
13164;DHT22;6647;53.688;10.746;2022-12-18T07:39:36;-6.60;1.00
13164;DHT22;6647;53.688;10.746;2022-12-18T07:41:04;-6.60;1.00
13164;DHT22;6647;53.688;10.746;2022-12-18T07:42:26;-6.60;1.00
13164;DHT22;6647;53.688;10.746;2022-12-18T07:43:52;-6.60;1.00
13164;DHT22;6647;53.688;10.746;2022-12-18T07:45:13;-6.60;1.00
13164;DHT22;6647;53.688;10.746;2022-12-18T07:46:34;-6.60;1.00
13164;DHT22;6647;53.688;10.746;2022-12-18T07:47:55;-6.60;1.00
13164;DHT22;6647;53.688;10.746;2022-12-18T07:49:16;-6.60;1.00
13164;DHT22;6647;53.688;10.746;2022-12-18T07:50:37;-6.70;1.00
13164;DHT22;6647;53.688;10.746;2022-12-18T07:51:58;-6.70;1.00
13164;DHT22;6647;53.688;10.746;2022-12-18T07:53:19;-6.60;1.00
13164;DHT22;6647;53.688;10.746;2022-12-18T07:54:40;-6.70;1.00
13164;DHT22;6647;53.688;10.746;2022-12-18T07:56:03;-6.70;1.00
13164;DHT22;6647;53.688;10.746;2022-12-18T07:57:25;-6.70;1.00
13164;DHT22;6647;53.688;10.746;2022-12-18T07:58:46;-6.80;1.00
13164;DHT22;6647;53.688;10.746;2022-12-18T08:00:07;-6.70;1.00
13164;DHT22;6647;53.688;10.746;2022-12-18T08:01:28;-6.70;1.00
13164;DHT22;6647;53.688;10.746;2022-12-18T08:02:49;-6.70;1.00
13164;DHT22;6647;53.688;10.746;2022-12-18T08:04:10;-6.70;1.00
13164;DHT22;6647;53.688;10.746;2022-12-18T08:05:31;-6.80;1.00
13164;DHT22;6647;53.688;10.746;2022-12-18T08:06:52;-6.80;1.00
13164;DHT22;6647;53.688;10.746;2022-12-18T08:08:13;-6.80;1.00
13164;DHT22;6647;53.688;10.746;2022-12-18T08:09:34;-6.80;1.00
13164;DHT22;6647;53.688;10.746;2022-12-18T08:10:56;-6.80;1.00
13164;DHT22;6647;53.688;10.746;2022-12-18T08:12:17;-6.80;1.00
13164;DHT22;6647;53.688;10.746;2022-12-18T08:13:38;-6.80;1.00
13164;DHT22;6647;53.688;10.746;2022-12-18T08:14:59;-6.90;1.00
13164;DHT22;6647;53.688;10.746;2022-12-18T08:16:20;-6.90;1.00
13164;DHT22;6647;53.688;10.746;2022-12-18T08:17:41;-6.80;1.00
13164;DHT22;6647;53.688;10.746;2022-12-18T08:19:03;-6.80;1.00
13164;DHT22;6647;53.688;10.746;2022-12-18T08:20:24;-6.80;1.00
13164;DHT22;6647;53.688;10.746;2022-12-18T08:21:44;-6.80;1.00
13164;DHT22;6647;53.688;10.746;2022-12-18T08:23:05;-6.80;1.00
13164;DHT22;6647;53.688;10.746;2022-12-18T08:24:26;-6.80;1.00
13164;DHT22;6647;53.688;10.746;2022-12-18T08:25:47;-6.80;1.00
13164;DHT22;6647;53.688;10.746;2022-12-18T08:27:08;-6.80;1.00
13164;DHT22;6647;53.688;10.746;2022-12-18T08:28:29;-6.80;1.00
13164;DHT22;6647;53.688;10.746;2022-12-18T08:29:50;-6.80;1.00
13164;DHT22;6647;53.688;10.746;2022-12-18T08:31:11;-6.80;1.00
13164;DHT22;6647;53.688;10.746;2022-12-18T08:32:32;-6.80;1.00
13164;DHT22;6647;53.688;10.746;2022-12-18T08:33:54;-6.80;1.00
13164;DHT22;6647;53.688;10.746;2022-12-18T08:35:15;-6.80;1.00
13164;DHT22;6647;53.688;10.746;2022-12-18T08:36:36;-6.80;1.00
13164;DHT22;6647;53.688;10.746;2022-12-18T08:37:57;-6.80;1.00
13164;DHT22;6647;53.688;10.746;2022-12-18T08:39:17;-6.80;1.00
13164;DHT22;6647;53.688;10.746;2022-12-18T08:40:38;-6.80;1.00
13164;DHT22;6647;53.688;10.746;2022-12-18T08:41:59;-6.80;1.00
13164;DHT22;6647;53.688;10.746;2022-12-18T08:43:39;-6.80;1.00
13164;DHT22;6647;53.688;10.746;2022-12-18T08:45:19;-6.80;1.00
13164;DHT22;6647;53.688;10.746;2022-12-18T08:46:41;-6.80;1.00
13164;DHT22;6647;53.688;10.746;2022-12-18T08:48:03;-6.80;1.00
13164;DHT22;6647;53.688;10.746;2022-12-18T08:49:23;-6.80;1.00
13164;DHT22;6647;53.688;10.746;2022-12-18T08:50:54;-6.80;1.00
13164;DHT22;6647;53.688;10.746;2022-12-18T08:52:14;-6.80;1.00
13164;DHT22;6647;53.688;10.746;2022-12-18T08:53:36;-6.80;1.00
13164;DHT22;6647;53.688;10.746;2022-12-18T08:54:57;-6.80;1.00
13164;DHT22;6647;53.688;10.746;2022-12-18T08:56:18;-6.70;1.00
13164;DHT22;6647;53.688;10.746;2022-12-18T08:57:39;-6.80;1.00
13164;DHT22;6647;53.688;10.746;2022-12-18T08:59:00;-6.70;1.00
13164;DHT22;6647;53.688;10.746;2022-12-18T09:00:21;-6.70;1.00
13164;DHT22;6647;53.688;10.746;2022-12-18T09:01:42;-6.70;1.00
13164;DHT22;6647;53.688;10.746;2022-12-18T09:03:03;-6.70;1.00
13164;DHT22;6647;53.688;10.746;2022-12-18T09:04:24;-6.70;1.00
13164;DHT22;6647;53.688;10.746;2022-12-18T09:05:47;-6.70;1.00
13164;DHT22;6647;53.688;10.746;2022-12-18T09:07:08;-6.70;1.00
13164;DHT22;6647;53.688;10.746;2022-12-18T09:08:29;-6.70;1.00
13164;DHT22;6647;53.688;10.746;2022-12-18T09:09:50;-6.60;1.00
13164;DHT22;6647;53.688;10.746;2022-12-18T09:11:25;-6.60;1.00
13164;DHT22;6647;53.688;10.746;2022-12-18T09:12:47;-6.60;1.00
13164;DHT22;6647;53.688;10.746;2022-12-18T09:14:09;-6.60;1.00
13164;DHT22;6647;53.688;10.746;2022-12-18T09:15:30;-6.50;1.00